Time;durP1;ratioP1;P1;durP2;ratioP2;P2;SDS_P1;SDS_P2;PMS_P1;PMS_P2;Temp;Humidity;BMP_temperature;BMP_pressure;BME280_temperature;BME280_humidity;BME280_pressure;Samples;Min_cycle;Max_cycle;Signal;HPM_P1;HPM_P2
2023/07/05 00:01:56;;;;;;;14.98;10.25;;;;;;;;;;4902388;29;20032;-94
2023/07/05 00:04:22;;;;;;;16.30;9.90;;;;;;;;;;4902224;29;20402;-94
2023/07/05 00:06:51;;;;;;;13.82;9.35;;;;;;;;;;4902122;29;20028;-95
2023/07/05 00:09:18;;;;;;;14.35;9.75;;;;;;;;;;4902135;29;20056;-96
2023/07/05 00:11:44;;;;;;;15.38;9.80;;;;;;;;;;4902247;29;20024;-95
2023/07/05 00:14:10;;;;;;;15.88;9.68;;;;;;;;;;4902512;29;20032;-94
2023/07/05 00:16:36;;;;;;;10.85;8.30;;;;;;;;;;4901961;29;20027;-95
2023/07/05 00:19:02;;;;;;;14.07;9.98;;;;;;;;;;4902024;29;20311;-95
2023/07/05 00:21:28;;;;;;;14.38;8.95;;;;;;;;;;4902343;29;20032;-93
2023/07/05 00:23:55;;;;;;;14.35;9.07;;;;;;;;;;4902200;29;20036;-94
2023/07/05 00:26:21;;;;;;;13.68;9.10;;;;;;;;;;4902279;29;20465;-96
2023/07/05 00:32:18;;;;;;;12.50;7.53;;;;;;;;;;4929426;29;20028;-93
2023/07/05 00:34:44;;;;;;;14.70;9.15;;;;;;;;;;4932671;29;20489;-95
2023/07/05 00:37:10;;;;;;;16.48;10.02;;;;;;;;;;4902580;29;20060;-94
2023/07/05 00:39:36;;;;;;;13.52;8.82;;;;;;;;;;4902326;29;20036;-93
2023/07/05 00:42:06;;;;;;;13.85;8.98;;;;;;;;;;4901999;29;20036;-95
2023/07/05 00:44:32;;;;;;;15.00;9.75;;;;;;;;;;4901345;29;20040;-93
2023/07/05 00:47:03;;;;;;;17.58;10.15;;;;;;;;;;4900629;29;20036;-94
2023/07/05 00:49:30;;;;;;;16.67;10.35;;;;;;;;;;4901617;29;20032;-93
2023/07/05 00:52:00;;;;;;;16.48;10.13;;;;;;;;;;4901490;29;20032;-94
2023/07/05 00:54:38;;;;;;;14.80;9.93;;;;;;;;;;4901774;29;20028;-93
2023/07/05 00:57:05;;;;;;;16.25;9.85;;;;;;;;;;4901808;29;20446;-94
2023/07/05 00:59:33;;;;;;;17.70;10.23;;;;;;;;;;4901362;29;20035;-94
2023/07/05 01:02:00;;;;;;;16.92;10.35;;;;;;;;;;4901779;29;20040;-94
2023/07/05 01:04:26;;;;;;;17.30;10.23;;;;;;;;;;4901264;29;20039;-94
2023/07/05 01:06:52;;;;;;;18.10;10.00;;;;;;;;;;4901633;29;20032;-93
2023/07/05 01:09:19;;;;;;;14.52;9.45;;;;;;;;;;4911405;29;20383;-94
2023/07/05 01:11:47;;;;;;;17.25;10.52;;;;;;;;;;4901653;29;20024;-93
2023/07/05 01:14:27;;;;;;;15.40;9.32;;;;;;;;;;4901378;29;20043;-94
2023/07/05 01:17:07;;;;;;;16.38;10.80;;;;;;;;;;4901293;29;20063;-92
2023/07/05 01:19:49;;;;;;;20.13;10.88;;;;;;;;;;4901807;29;20020;-94
2023/07/05 01:22:35;;;;;;;15.05;10.40;;;;;;;;;;4901360;29;20474;-95
2023/07/05 01:25:10;;;;;;;20.10;9.95;;;;;;;;;;4895412;29;20042;-94
2023/07/05 01:27:51;;;;;;;14.85;9.70;;;;;;;;;;4901283;29;20060;-96
2023/07/05 01:30:41;;;;;;;17.38;10.45;;;;;;;;;;4901167;29;20064;-93
2023/07/05 01:33:13;;;;;;;15.60;9.95;;;;;;;;;;4896105;29;20044;-94
2023/07/05 01:35:43;;;;;;;11.07;7.82;;;;;;;;;;4901493;29;20127;-94
2023/07/05 01:38:09;;;;;;;17.45;10.63;;;;;;;;;;4885167;29;20064;-94
2023/07/05 01:40:36;;;;;;;17.85;10.50;;;;;;;;;;4882799;29;20038;-93
2023/07/05 01:43:09;;;;;;;17.27;8.77;;;;;;;;;;4885802;29;20375;-93
2023/07/05 01:45:45;;;;;;;13.55;9.05;;;;;;;;;;4906137;29;20028;-92
2023/07/05 01:48:37;;;;;;;15.27;10.75;;;;;;;;;;4901273;29;20497;-96
2023/07/05 01:51:29;;;;;;;17.58;10.73;;;;;;;;;;4901257;29;20537;-94
2023/07/05 01:54:01;;;;;;;16.80;10.30;;;;;;;;;;4900838;29;20032;-94
2023/07/05 01:56:40;;;;;;;14.70;10.15;;;;;;;;;;4901323;29;20508;-94
2023/07/05 01:59:06;;;;;;;16.20;10.25;;;;;;;;;;4904068;29;20063;-95
2023/07/05 02:01:34;;;;;;;16.85;9.18;;;;;;;;;;4904898;29;20461;-92
2023/07/05 02:04:02;;;;;;;20.85;10.70;;;;;;;;;;4904772;29;20043;-93
2023/07/05 02:06:28;;;;;;;17.08;9.82;;;;;;;;;;4904201;29;20024;-93
2023/07/05 02:08:54;;;;;;;16.95;8.95;;;;;;;;;;4904176;29;20032;-94
2023/07/05 02:11:22;;;;;;;19.88;9.52;;;;;;;;;;4904597;29;20031;-95
2023/07/05 02:13:49;;;;;;;17.35;9.65;;;;;;;;;;4888788;29;20040;-95
2023/07/05 02:16:34;;;;;;;13.40;8.25;;;;;;;;;;4920919;29;20028;-94
2023/07/05 02:19:00;;;;;;;20.27;10.73;;;;;;;;;;5059091;23;20077;-94
2023/07/05 02:21:26;;;;;;;15.65;10.50;;;;;;;;;;4949289;29;20039;-92
2023/07/05 02:23:52;;;;;;;16.42;10.82;;;;;;;;;;4942028;29;20039;-95
2023/07/05 02:26:18;;;;;;;18.30;10.15;;;;;;;;;;4942086;29;20027;-94
2023/07/05 02:28:52;;;;;;;14.85;9.95;;;;;;;;;;4942791;29;20496;-96
2023/07/05 02:31:40;;;;;;;16.45;9.25;;;;;;;;;;4943199;29;20040;-96
2023/07/05 02:34:06;;;;;;;18.23;10.68;;;;;;;;;;4944279;29;20035;-95
2023/07/05 02:36:32;;;;;;;18.90;10.35;;;;;;;;;;4943341;29;20023;-94
2023/07/05 02:38:58;;;;;;;16.80;9.52;;;;;;;;;;4942973;29;20098;-92
2023/07/05 03:09:25;;;;;;;18.20;11.20;;;;;;;;;;5374598;23;20115;31
2023/07/05 04:34:57;;;;;;;14.50;10.07;;;;;;;;;;4460091;23;20989;-95
2023/07/05 06:11:38;;;;;;;9.40;7.10;;;;;;;;;;4957551;29;20055;-92
2023/07/05 06:14:14;;;;;;;11.18;8.27;;;;;;;;;;4942984;29;20027;-94
2023/07/05 06:16:40;;;;;;;11.77;8.35;;;;;;;;;;4942433;29;20034;-92
2023/07/05 06:19:25;;;;;;;10.48;7.90;;;;;;;;;;4942159;29;20024;-93
2023/07/05 06:24:42;;;;;;;12.57;7.95;;;;;;;;;;5000050;23;20413;-92
2023/07/05 06:27:21;;;;;;;11.68;7.20;;;;;;;;;;4935940;29;20035;-94
2023/07/05 06:30:06;;;;;;;10.43;7.22;;;;;;;;;;4946364;29;20540;-96
2023/07/05 06:32:32;;;;;;;14.18;7.10;;;;;;;;;;4925354;29;20063;-94
2023/07/05 06:34:59;;;;;;;9.75;7.57;;;;;;;;;;4924227;29;20034;-93
2023/07/05 06:37:25;;;;;;;8.18;6.15;;;;;;;;;;4923246;29;20111;-93
2023/07/05 06:39:51;;;;;;;8.05;6.03;;;;;;;;;;4924690;29;20024;-91
2023/07/05 06:42:17;;;;;;;8.55;6.60;;;;;;;;;;4943276;28;20055;-92
2023/07/05 06:44:43;;;;;;;9.18;6.55;;;;;;;;;;4936939;29;20066;-92
2023/07/05 06:47:09;;;;;;;9.30;5.75;;;;;;;;;;4937955;29;20063;-94
2023/07/05 06:49:36;;;;;;;8.27;6.20;;;;;;;;;;4922823;29;20023;-91
2023/07/05 06:52:02;;;;;;;7.57;6.00;;;;;;;;;;4938617;29;20031;-93
2023/07/05 06:54:28;;;;;;;8.77;5.68;;;;;;;;;;4938414;29;20024;-91
2023/07/05 06:56:55;;;;;;;6.88;5.90;;;;;;;;;;4938404;29;20137;-93
2023/07/05 06:59:21;;;;;;;9.75;6.40;;;;;;;;;;4940512;29;20024;-95
2023/07/05 07:01:48;;;;;;;6.85;4.07;;;;;;;;;;4938406;29;20046;-95
2023/07/05 07:04:14;;;;;;;8.02;4.28;;;;;;;;;;4938341;29;20032;-92
2023/07/05 07:06:40;;;;;;;5.95;4.80;;;;;;;;;;4938450;29;20023;-95
2023/07/05 07:09:07;;;;;;;7.18;5.07;;;;;;;;;;4938040;29;20035;-93
2023/07/05 07:11:33;;;;;;;8.30;4.93;;;;;;;;;;4938140;29;20031;-95
2023/07/05 07:13:59;;;;;;;7.40;5.00;;;;;;;;;;4938203;29;20489;-92
2023/07/05 07:16:44;;;;;;;9.00;5.82;;;;;;;;;;4940830;29;20016;-94
2023/07/05 07:19:25;;;;;;;7.43;5.20;;;;;;;;;;4908837;29;20043;-96
2023/07/05 07:24:44;;;;;;;;;;;;;;;;;;4890548;29;20059;-92
2023/07/05 07:27:10;;;;;;;9.52;5.25;;;;;;;;;;4903241;29;19907;-95
2023/07/05 07:29:36;;;;;;;11.93;5.32;;;;;;;;;;4902861;29;20123;-91
2023/07/05 07:32:03;;;;;;;9.27;5.35;;;;;;;;;;4903302;29;20035;-93
2023/07/05 07:34:31;;;;;;;8.20;5.50;;;;;;;;;;4903132;29;20035;-92
2023/07/05 07:37:00;;;;;;;7.60;5.72;;;;;;;;;;4903723;29;20056;-94
2023/07/05 07:39:26;;;;;;;7.55;5.82;;;;;;;;;;4902923;29;20111;-93
2023/07/05 07:41:52;;;;;;;7.68;5.78;;;;;;;;;;4902717;29;20546;-91
2023/07/05 07:44:22;;;;;;;11.27;6.03;;;;;;;;;;4902851;29;20217;-93
2023/07/05 07:46:48;;;;;;;11.35;5.85;;;;;;;;;;4902654;29;20032;-92
2023/07/05 07:49:14;;;;;;;8.52;5.50;;;;;;;;;;4902461;29;20032;-92
2023/07/05 07:51:44;;;;;;;8.52;5.68;;;;;;;;;;4902582;29;20032;-92
2023/07/05 07:54:30;;;;;;;12.35;6.75;;;;;;;;;;4902802;29;20020;-94
2023/07/05 07:56:57;;;;;;;10.57;6.05;;;;;;;;;;4886672;29;20075;-94
2023/07/05 07:59:24;;;;;;;7.90;5.65;;;;;;;;;;4902306;29;20028;-94
2023/07/05 08:01:50;;;;;;;7.35;5.40;;;;;;;;;;4902622;29;20088;-93
2023/07/05 08:04:16;;;;;;;14.77;5.72;;;;;;;;;;4901964;29;20492;-94
2023/07/05 08:06:45;;;;;;;6.25;5.03;;;;;;;;;;4902261;29;20024;-93
2023/07/05 08:09:16;;;;;;;7.78;5.60;;;;;;;;;;4903304;29;20074;-94
2023/07/05 08:11:42;;;;;;;8.93;5.18;;;;;;;;;;4905510;29;20024;-93
2023/07/05 08:14:09;;;;;;;8.55;5.20;;;;;;;;;;4905492;29;20078;-94
2023/07/05 08:16:38;;;;;;;9.32;5.07;;;;;;;;;;4902716;29;20123;-94
2023/07/05 08:19:04;;;;;;;9.48;5.32;;;;;;;;;;4902222;29;20127;-93
2023/07/05 08:21:37;;;;;;;11.27;5.47;;;;;;;;;;4903600;29;20043;-92
2023/07/05 08:24:03;;;;;;;7.32;4.95;;;;;;;;;;4901514;29;20395;-93
2023/07/05 08:26:33;;;;;;;7.63;4.55;;;;;;;;;;4901977;29;20070;-94
2023/07/05 08:29:00;;;;;;;7.25;4.88;;;;;;;;;;4905059;29;20028;-91
2023/07/05 08:31:30;;;;;;;7.13;4.75;;;;;;;;;;4903108;29;20111;-95
2023/07/05 08:33:56;;;;;;;7.43;4.63;;;;;;;;;;4902143;29;20031;-92
2023/07/05 08:36:33;;;;;;;6.75;4.90;;;;;;;;;;4901975;29;20114;-93
2023/07/05 08:39:03;;;;;;;7.95;4.68;;;;;;;;;;4901576;29;20032;-91
2023/07/05 08:41:41;;;;;;;7.88;4.78;;;;;;;;;;4901623;29;20047;-92
2023/07/05 08:44:13;;;;;;;11.75;5.05;;;;;;;;;;4901155;29;20044;-92
2023/07/05 08:46:41;;;;;;;7.55;4.60;;;;;;;;;;4901747;29;20032;-92
2023/07/05 08:49:16;;;;;;;7.45;4.65;;;;;;;;;;4902283;29;20127;-92
2023/07/05 08:51:42;;;;;;;6.18;4.20;;;;;;;;;;4909961;29;20028;-92
2023/07/05 08:54:11;;;;;;;7.88;4.57;;;;;;;;;;4910463;29;20040;-92
2023/07/05 08:56:43;;;;;;;6.20;4.43;;;;;;;;;;4902219;29;20035;-92
2023/07/05 08:59:13;;;;;;;6.97;4.10;;;;;;;;;;4902113;29;20028;-93
2023/07/05 09:01:42;;;;;;;8.70;4.38;;;;;;;;;;4901434;29;20136;-93
2023/07/05 09:04:21;;;;;;;6.07;4.13;;;;;;;;;;4901536;29;20044;-92
2023/07/05 09:06:57;;;;;;;8.60;4.22;;;;;;;;;;4901099;29;20028;-90
2023/07/05 09:09:33;;;;;;;8.02;4.55;;;;;;;;;;4901561;29;20028;-95
2023/07/05 09:12:04;;;;;;;8.30;4.38;;;;;;;;;;4900951;29;20481;-90
2023/07/05 09:14:48;;;;;;;12.95;4.82;;;;;;;;;;4902024;29;20032;-91
2023/07/05 09:17:25;;;;;;;12.50;5.20;;;;;;;;;;4902129;29;20393;-93
2023/07/05 09:19:59;;;;;;;6.72;4.10;;;;;;;;;;4901405;29;20024;-91
2023/07/05 09:22:27;;;;;;;9.63;4.82;;;;;;;;;;4901612;29;20036;-91
2023/07/05 09:24:55;;;;;;;7.03;4.10;;;;;;;;;;4910054;29;20055;-92
2023/07/05 09:27:31;;;;;;;11.20;4.88;;;;;;;;;;4916787;29;20028;-96
2023/07/05 09:30:04;;;;;;;7.88;4.70;;;;;;;;;;4904508;29;20030;-94
2023/07/05 09:32:34;;;;;;;10.30;4.85;;;;;;;;;;4901654;29;20080;-94
2023/07/05 09:35:01;;;;;;;7.28;4.57;;;;;;;;;;4901354;29;20039;-92
2023/07/05 09:37:32;;;;;;;10.00;4.75;;;;;;;;;;4901455;29;20142;-94
2023/07/05 09:40:20;;;;;;;11.02;4.38;;;;;;;;;;4901307;29;20032;-93
2023/07/05 09:42:57;;;;;;;7.70;4.68;;;;;;;;;;4901218;29;20072;-95
2023/07/05 09:45:29;;;;;;;6.72;4.65;;;;;;;;;;4901817;29;20561;-95
2023/07/05 09:47:59;;;;;;;8.43;5.07;;;;;;;;;;4896221;29;20047;-94
2023/07/05 09:58:24;;;;;;;8.23;4.75;;;;;;;;;;5919665;23;20355;-93
2023/07/05 13:00:00;;;;;;;9.63;5.75;;;;;;;;;;5482257;23;20044;-95
2023/07/05 13:20:43;;;;;;;6.40;5.45;;;;;;;;;;5542753;23;19983;-93
2023/07/05 13:26:36;;;;;;;6.53;5.70;;;;;;;;;;4907369;29;20056;-91
2023/07/05 13:32:05;;;;;;;10.02;5.40;;;;;;;;;;5628911;23;20039;-93
2023/07/05 13:45:43;;;;;;;7.93;5.20;;;;;;;;;;5514156;23;20051;31
2023/07/05 13:59:26;;;;;;;7.45;5.03;;;;;;;;;;5505051;23;20863;-94
2023/07/05 14:01:52;;;;;;;10.00;5.82;;;;;;;;;;5227506;23;20039;-93
2023/07/05 14:07:05;;;;;;;7.15;5.30;;;;;;;;;;5246244;23;20405;-95
2023/07/05 14:09:32;;;;;;;6.55;5.10;;;;;;;;;;5420930;23;21215;-93
2023/07/05 14:48:29;;;;;;;6.63;5.30;;;;;;;;;;5243943;23;20059;-94
2023/07/05 14:50:55;;;;;;;6.70;4.90;;;;;;;;;;5002846;23;20036;-95
2023/07/05 14:53:33;;;;;;;6.35;4.90;;;;;;;;;;5228561;23;20048;-94
2023/07/05 14:59:41;;;;;;;5.95;4.97;;;;;;;;;;5573456;23;20011;-94
2023/07/05 15:04:51;;;;;;;5.93;4.60;;;;;;;;;;5054813;23;20137;-96
2023/07/05 15:32:16;;;;;;;8.57;6.93;;;;;;;;;;4940760;29;20043;-96
2023/07/05 17:37:06;;;;;;;8.65;4.10;;;;;;;;;;5687929;23;20942;31
2023/07/05 17:39:41;;;;;;;5.72;4.20;;;;;;;;;;4882984;29;20045;-95
2023/07/05 19:58:41;;;;;;;3.50;1.92;;;;;;;;;;5990065;23;20231;31
